Date,TemperatureHighF,TemperatureAvgF,TemperatureLowF,DewpointHighF,DewpointAvgF,DewpointLowF,HumidityHigh,HumidityAvg,HumidityLow,PressureMaxIn,PressureMinIn,WindSpeedMaxMPH,WindSpeedAvgMPH,GustSpeedMaxMPH,PrecipitationSumIn
2013-2-1,48.0,32.8,20.0,30.0,24.1,19.0,95,73,46,0.00,40.00,6,4,8,0.01
2013-2-2,46.0,31.9,24.0,29.0,24.3,21.0,88,75,51,0.00,40.00,8,4,13,0.01
2013-2-3,48.0,33.2,21.0,27.0,24.5,20.0,95,72,44,0.00,40.00,6,4,11,0.00
2013-2-4,48.0,36.0,27.0,29.0,26.0,23.0,87,68,47,0.00,40.00,6,3,9,0.00
2013-2-5,43.0,35.0,30.0,32.0,26.7,24.0,89,72,47,0.00,40.00,12,5,21,0.00
2013-2-6,44.0,33.8,28.0,27.0,25.7,23.0,92,73,43,0.00,40.00,8,4,15,0.00
2013-2-7,41.0,31.9,25.0,27.0,21.4,15.0,91,67,41,0.00,40.00,10,5,18,0.00
2013-2-8,39.0,28.1,19.0,20.0,16.2,9.0,92,64,29,0.00,40.00,11,6,24,0.00
2013-2-9,43.0,28.1,14.0,25.0,17.6,11.0,87,67,40,0.00,40.00,8,4,12,0.00
2013-2-10,46.0,33.8,23.0,24.0,19.9,16.0,92,60,35,0.00,40.00,11,5,19,0.01
2013-2-11,49.0,33.1,18.0,29.0,20.4,15.0,87,62,33,0.00,40.00,14,5,22,0.01
2013-2-12,49.0,33.4,24.0,28.0,25.0,22.0,95,74,37,0.00,40.00,7,4,12,0.00
2013-2-13,51.0,36.0,25.0,31.0,26.8,23.0,93,72,41,0.00,40.00,9,4,15,0.00
2013-2-14,52.0,36.6,25.0,32.0,27.7,24.0,97,73,42,0.00,40.00,7,5,11,0.00
2013-2-15,54.0,38.8,25.0,30.0,26.4,23.0,94,65,36,0.00,40.00,7,4,10,0.00
2013-2-16,53.0,35.6,24.0,30.0,24.5,16.0,94,67,38,0.00,40.00,12,6,21,0.00
2013-2-17,43.0,29.9,17.0,22.0,16.0,8.0,92,60,27,0.00,40.00,7,3,11,0.00
2013-2-18,41.0,29.6,23.0,25.0,18.6,12.0,95,65,40,0.00,40.00,15,4,23,0.00
2013-2-19,31.0,26.5,21.0,27.0,23.2,18.0,93,87,80,0.00,40.00,7,4,17,0.03
2013-2-20,40.0,26.8,16.0,23.0,19.5,13.0,95,75,44,0.00,40.00,8,4,17,0.06
2013-2-21,36.0,27.9,18.0,24.0,20.4,16.0,90,74,51,0.00,40.00,10,5,19,0.01
2013-2-22,46.0,31.7,25.0,33.0,26.1,22.0,98,81,50,0.00,40.00,18,7,33,0.12
2013-2-23,34.0,27.1,20.0,25.0,20.7,16.0,94,77,61,0.00,40.00,14,7,23,0.18
2013-2-24,41.0,26.4,13.0,25.0,18.2,10.0,93,73,47,0.00,40.00,7,4,12,0.01
2013-2-25,39.0,31.0,26.0,31.0,21.9,16.0,98,70,41,0.00,40.00,14,8,25,0.02
2013-2-26,42.0,28.0,16.0,21.0,17.5,14.0,91,67,41,0.00,40.00,8,4,13,0.01
2013-2-27,49.0,32.5,20.0,31.0,21.3,16.0,86,65,37,0.00,40.00,8,4,14,0.00
2013-2-28,47.0,40.9,36.0,41.0,36.9,31.0,100,86,75,0.00,40.00,8,5,14,0.04